»·PEaware :: UAL414 KBUR-KDEN

UAL414 :: KBUR-KDEN

FLIGHT INFORMATION

Flight Status: Arrived
Operator:
United Airlines
More flights by this operator :: More flights under this callsign
Pilot: Joshua V. (18904)
Aircraft: BOEING 737-200
(B732)
More flights by this aircraft type
Origin: KBUR Bob Hope-Burbank
United States
Destination: KDEN Denver Intl
United States
More flights between these airports :: More routes between these airports
Route: VNY3 DAG J146 HBU POWDR1
File this flight plan on PilotEdge
Remarks: RMK / SIMBRIEF
Altitude:
(Current/Filed)
33,000ft
Speed:
(Current/Filed)
424kts
Departed: 14-Mar-21 06:17 PM
Arrived: 14-Mar-21 08:20 PM
Distance/Time
Traveled:
737nm/2:03
Distance/Time
To Go:
Arrived

Flight Plot

Page will automatically refresh every two minutes.

Flight plan parsing failed; only flown route is shown


Map Options




Map Legend


Flown Route
Filed Route
Departure Airport
Arrival Airport
Navaid (VOR, NDB)
Fix

Horizontal Profiles

Position Reports

Time Latitude Longitude Heading Altitude Ground
Speed
14-Mar-21 17:46 34.196795 -118.351053 180 786ft 0kts
14-Mar-21 17:47 34.196795 -118.351053 180 786ft 0kts
14-Mar-21 17:48 34.196795 -118.351053 180 786ft 0kts
14-Mar-21 17:49 34.196795 -118.351053 180 786ft 0kts
14-Mar-21 17:50 34.196795 -118.351053 180 786ft 0kts
14-Mar-21 17:51 34.196795 -118.351053 180 786ft 0kts
14-Mar-21 17:53 34.196795 -118.351053 180 786ft 0kts
14-Mar-21 17:54 34.196795 -118.351053 180 786ft 0kts
14-Mar-21 17:55 34.196795 -118.351053 180 786ft 0kts
14-Mar-21 17:56 34.196795 -118.351053 180 786ft 0kts
14-Mar-21 17:57 34.196795 -118.351053 180 786ft 0kts
14-Mar-21 17:58 34.196795 -118.351053 180 786ft 0kts
14-Mar-21 17:59 34.196795 -118.351053 180 786ft 0kts
14-Mar-21 18:00 34.196795 -118.351053 180 786ft 0kts
14-Mar-21 18:01 34.196795 -118.351053 180 786ft 0kts
14-Mar-21 18:02 34.196795 -118.351053 180 786ft 0kts
14-Mar-21 18:03 34.196795 -118.351053 180 786ft 0kts
14-Mar-21 18:04 34.196795 -118.351053 180 786ft 0kts
14-Mar-21 18:05 34.197001 -118.351032 207 786ft 2kts
14-Mar-21 18:06 34.197158 -118.350659 271 786ft 0kts
14-Mar-21 18:07 34.197158 -118.350659 271 785ft 0kts
14-Mar-21 18:08 34.197158 -118.350659 271 785ft 0kts
14-Mar-21 18:09 34.197158 -118.350659 271 785ft 0kts
14-Mar-21 18:10 34.197175 -118.352604 271 786ft 11kts
14-Mar-21 18:11 34.199875 -118.355644 346 786ft 17kts
14-Mar-21 18:12 34.205741 -118.357268 348 786ft 24kts
14-Mar-21 18:13 34.209716 -118.358530 337 786ft 1kts
14-Mar-21 18:14 34.211430 -118.358913 324 786ft 3kts
14-Mar-21 18:15 34.211632 -118.359138 314 786ft 5kts
14-Mar-21 18:16 34.207051 -118.359035 167 786ft 90kts
14-Mar-21 18:17 34.163471 -118.360378 217 2143ft 204kts
14-Mar-21 18:18 34.116127 -118.414564 225 4537ft 263kts
14-Mar-21 18:19 34.061496 -118.476998 225 7893ft 273kts
14-Mar-21 18:20 34.005031 -118.540683 225 10095ft 282kts
14-Mar-21 18:21 33.942798 -118.609396 225 11897ft 321kts
14-Mar-21 18:22 33.875248 -118.683296 224 13948ft 339kts
14-Mar-21 18:23 33.842054 -118.786619 290 14007ft 363kts
14-Mar-21 18:24 33.926217 -118.838791 0 13995ft 365kts
14-Mar-21 18:25 34.008800 -118.771502 39 14712ft 363kts
14-Mar-21 18:26 34.083467 -118.687533 39 16064ft 373kts
14-Mar-21 18:27 34.161175 -118.600137 39 17812ft 387kts
14-Mar-21 18:28 34.240897 -118.510410 39 19607ft 398kts
14-Mar-21 18:29 34.322744 -118.417526 39 21183ft 408kts
14-Mar-21 18:30 34.406253 -118.321937 40 22658ft 418kts
14-Mar-21 18:31 34.491552 -118.223696 39 23964ft 427kts
14-Mar-21 18:32 34.579107 -118.123659 39 25092ft 437kts
14-Mar-21 18:33 34.670324 -118.023812 35 26206ft 445kts
14-Mar-21 18:34 34.700299 -117.883016 105 27162ft 461kts
14-Mar-21 18:35 34.699561 -117.726230 81 28046ft 473kts
14-Mar-21 18:36 34.716186 -117.565616 82 28900ft 481kts
14-Mar-21 18:37 34.742262 -117.405132 73 29688ft 488kts
14-Mar-21 18:38 34.787203 -117.248626 66 30361ft 493kts
14-Mar-21 18:39 34.837669 -117.093636 68 31123ft 493kts
14-Mar-21 18:40 34.878392 -116.932278 73 31675ft 497kts
14-Mar-21 18:41 34.914276 -116.771190 71 32593ft 490kts
14-Mar-21 18:42 34.953874 -116.611053 71 33006ft 494kts
14-Mar-21 18:43 35.026144 -116.478604 25 33021ft 470kts
14-Mar-21 18:44 35.122956 -116.369407 44 33023ft 487kts
14-Mar-21 18:45 35.215981 -116.250162 39 33021ft 484kts
14-Mar-21 18:46 35.310718 -116.132104 40 33022ft 485kts
14-Mar-21 18:47 35.404099 -116.011506 41 33034ft 486kts
14-Mar-21 18:48 35.496327 -115.889580 41 33040ft 487kts
14-Mar-21 18:49 35.592288 -115.773052 35 33039ft 483kts
14-Mar-21 18:50 35.692741 -115.662928 36 33039ft 484kts
14-Mar-21 18:51 35.788355 -115.544564 41 33040ft 489kts
14-Mar-21 18:52 35.879196 -115.419959 41 33031ft 490kts
14-Mar-21 18:53 35.972002 -115.297310 40 32998ft 485kts
14-Mar-21 18:54 36.064799 -115.177796 40 32993ft 479kts
14-Mar-21 18:55 36.122864 -115.032449 85 33027ft 493kts
14-Mar-21 18:56 36.166302 -114.875970 64 33044ft 481kts
14-Mar-21 18:57 36.213261 -114.720664 65 33038ft 480kts
14-Mar-21 18:58 36.259080 -114.564823 65 33039ft 480kts
14-Mar-21 18:59 36.304689 -114.410029 64 33037ft 479kts
14-Mar-21 19:00 36.350497 -114.254677 65 33039ft 477kts
14-Mar-21 19:01 36.395874 -114.099839 65 33048ft 475kts
14-Mar-21 19:02 36.440727 -113.946068 64 33059ft 473kts
14-Mar-21 19:03 36.484994 -113.792568 64 33057ft 472kts
14-Mar-21 19:04 36.529517 -113.638620 64 33052ft 472kts
14-Mar-21 19:05 36.573920 -113.484435 64 33047ft 473kts
14-Mar-21 19:06 36.618178 -113.329672 64 33039ft 474kts
14-Mar-21 19:07 36.661818 -113.174805 64 33039ft 473kts
14-Mar-21 19:08 36.704895 -113.020230 64 33039ft 472kts
14-Mar-21 19:09 36.747816 -112.865408 63 33046ft 471kts
14-Mar-21 19:10 36.790750 -112.711098 63 33049ft 470kts
14-Mar-21 19:11 36.833887 -112.556799 63 33049ft 469kts
14-Mar-21 19:12 36.876967 -112.403232 62 33049ft 469kts
14-Mar-21 19:13 36.920115 -112.248903 63 33048ft 468kts
14-Mar-21 19:14 36.962576 -112.095352 63 33048ft 467kts
14-Mar-21 19:15 36.996756 -111.937531 67 33011ft 471kts
14-Mar-21 19:16 37.043336 -111.787514 54 32959ft 455kts
14-Mar-21 19:17 37.107643 -111.653276 46 32968ft 445kts
14-Mar-21 19:18 37.164418 -111.513788 68 32983ft 468kts
14-Mar-21 19:19 37.197039 -111.355892 65 32993ft 466kts
14-Mar-21 19:20 37.236331 -111.201080 62 33006ft 462kts
14-Mar-21 19:21 37.282078 -111.050964 59 33013ft 458kts
14-Mar-21 19:22 37.330892 -110.903292 59 32988ft 458kts
14-Mar-21 19:23 37.377776 -110.753034 62 32984ft 461kts
14-Mar-21 19:24 37.411395 -110.595964 72 32985ft 470kts
14-Mar-21 19:25 37.437051 -110.435039 70 32984ft 468kts
14-Mar-21 19:26 37.470803 -110.276728 66 32983ft 463kts
14-Mar-21 19:28 37.514002 -110.124408 62 32987ft 458kts
14-Mar-21 19:29 37.560592 -109.975406 62 33013ft 456kts
14-Mar-21 19:30 37.602131 -109.824313 66 33021ft 457kts
14-Mar-21 19:31 37.635872 -109.669809 69 33021ft 457kts
14-Mar-21 19:32 37.668004 -109.513975 67 33021ft 455kts
14-Mar-21 19:33 37.704457 -109.361475 64 33021ft 451kts
14-Mar-21 19:34 37.742270 -109.210521 65 33021ft 450kts
14-Mar-21 19:35 37.778274 -109.058978 65 32971ft 449kts
14-Mar-21 19:36 37.814342 -108.907951 58 32926ft 440kts
14-Mar-21 19:37 37.862226 -108.767811 56 32935ft 432kts
14-Mar-21 19:38 37.911477 -108.629810 56 32930ft 430kts
14-Mar-21 19:39 37.959906 -108.491235 56 32929ft 427kts
14-Mar-21 19:40 38.007043 -108.353830 57 32930ft 424kts
14-Mar-21 19:41 38.052998 -108.216190 57 32928ft 421kts
14-Mar-21 19:42 38.098095 -108.079621 57 32929ft 418kts
14-Mar-21 19:43 38.143432 -107.943508 59 32932ft 420kts
14-Mar-21 19:44 38.191240 -107.809443 52 32929ft 413kts
14-Mar-21 19:45 38.245192 -107.680031 54 32934ft 414kts
14-Mar-21 19:46 38.292559 -107.544619 59 32934ft 421kts
14-Mar-21 19:47 38.333720 -107.405067 60 32939ft 421kts
14-Mar-21 19:48 38.377203 -107.267152 59 32945ft 417kts
14-Mar-21 19:49 38.422450 -107.130872 60 32947ft 416kts
14-Mar-21 19:50 38.474946 -107.002811 35 32940ft 394kts
14-Mar-21 19:51 38.542046 -106.890169 46 32908ft 400kts
14-Mar-21 19:52 38.610248 -106.777259 47 32880ft 401kts
14-Mar-21 19:53 38.677806 -106.663923 47 32883ft 400kts
14-Mar-21 19:54 38.745155 -106.550435 47 32884ft 400kts
14-Mar-21 19:55 38.812122 -106.437337 47 32880ft 393kts
14-Mar-21 19:56 38.876567 -106.327685 48 32881ft 381kts
14-Mar-21 19:57 38.940055 -106.218693 48 32812ft 379kts
14-Mar-21 19:58 39.002270 -106.112879 48 31383ft 362kts
14-Mar-21 19:59 39.061660 -106.013091 49 29240ft 341kts
14-Mar-21 20:00 39.117790 -105.914911 48 26922ft 338kts
14-Mar-21 20:01 39.179270 -105.827183 40 25057ft 325kts
14-Mar-21 20:02 39.243592 -105.747774 42 23217ft 318kts
14-Mar-21 20:03 39.295387 -105.654847 49 21506ft 317kts
14-Mar-21 20:04 39.349860 -105.561195 47 19727ft 311kts
14-Mar-21 20:05 39.404286 -105.474042 47 18846ft 293kts
14-Mar-21 20:06 39.438757 -105.382238 76 18428ft 303kts
14-Mar-21 20:06 39.448312 -105.288369 78 17300ft 314kts
14-Mar-21 20:07 39.459973 -105.177693 78 15119ft 303kts
14-Mar-21 20:09 39.474177 -105.052744 78 13563ft 293kts
14-Mar-21 20:10 39.486018 -104.951902 78 12680ft 261kts
14-Mar-21 20:11 39.496530 -104.862930 78 11124ft 247kts
14-Mar-21 20:11 39.505700 -104.790469 77 10508ft 248kts
14-Mar-21 20:12 39.520228 -104.704862 46 9984ft 238kts
14-Mar-21 20:13 39.576937 -104.666102 6 9460ft 233kts
14-Mar-21 20:15 39.651926 -104.663073 3 8914ft 228kts
14-Mar-21 20:16 39.712803 -104.661377 0 7739ft 205kts
14-Mar-21 20:16 39.756701 -104.660738 358 6888ft 169kts
14-Mar-21 20:17 39.794556 -104.660977 354 6148ft 129kts
14-Mar-21 20:18 39.829719 -104.660528 358 5477ft 127kts
14-Mar-21 20:19 39.848607 -104.661234 332 5443ft 17kts
14-Mar-21 20:20 39.851313 -104.662415 0 5443ft 8kts
14-Mar-21 20:21 39.852952 -104.664161 269 5443ft 10kts

Navigation Log

Ident Type
Flight plan parsing failed, navigation log unavailable